createdAt,value
2023-04-15T10:39:40.301Z,20.7
2023-04-15T10:44:45.855Z,20.7
2023-04-15T10:49:52.124Z,20.9
2023-04-15T10:54:58.433Z,21.1
2023-04-15T11:00:04.845Z,21.3
2023-04-15T11:05:11.186Z,21.4
2023-04-15T11:10:17.581Z,21.5
2023-04-15T11:15:24.093Z,21.5
2023-04-15T11:20:30.460Z,21.6
2023-04-15T11:25:37.033Z,21.6
2023-04-15T11:30:43.416Z,21.7
2023-04-15T11:35:50.022Z,21.7
2023-04-15T11:40:56.383Z,21.7
2023-04-15T11:46:03.020Z,21.7
2023-04-15T11:51:09.796Z,21.7
2023-04-15T11:56:16.126Z,21.8
2023-04-15T12:01:22.732Z,21.8
2023-04-15T12:06:29.102Z,21.8
2023-04-15T12:11:35.694Z,21.9
2023-04-15T12:16:42.065Z,21.9
2023-04-15T12:21:47.471Z,22
2023-04-15T12:26:52.854Z,22.1
2023-04-15T12:31:59.237Z,22.1
2023-04-15T12:37:05.944Z,22.1
2023-04-15T12:42:12.274Z,22.1
2023-04-15T12:47:18.942Z,22.2
2023-04-15T12:52:25.317Z,22.2
2023-04-15T12:57:31.976Z,22.2
2023-04-15T13:02:38.344Z,22.2
2023-04-15T13:07:45.019Z,22.2
2023-04-15T13:12:51.392Z,22.2
2023-04-15T13:17:58.073Z,22.2
2023-04-15T13:23:04.443Z,22.2
2023-04-15T13:28:11.095Z,22.2
2023-04-15T13:33:17.483Z,22.2
2023-04-15T13:38:24.149Z,22.2
2023-04-15T13:43:30.519Z,22.3
2023-04-15T13:48:37.187Z,22.2
2023-04-15T13:53:43.562Z,22.2
2023-04-15T13:58:50.231Z,22.2
2023-04-15T14:03:56.597Z,22.2
2023-04-15T14:09:03.279Z,22.2
2023-04-15T14:14:09.631Z,22.2
2023-04-15T14:19:16.291Z,22.2
2023-04-15T14:24:22.665Z,22.2
2023-04-15T14:29:29.337Z,22.2
2023-04-15T14:34:35.719Z,22.2
2023-04-15T14:39:42.515Z,22.2
2023-04-15T14:44:48.741Z,22.2
2023-04-15T14:49:55.408Z,22.2
2023-04-15T14:55:01.789Z,22.3
